Time;durP1;ratioP1;P1;durP2;ratioP2;P2;SDS_P1;SDS_P2;PMS_P1;PMS_P2;Temp;Humidity;BMP_temperature;BMP_pressure;BME280_temperature;BME280_humidity;BME280_pressure;Samples;Min_cycle;Max_cycle;Signal;HPM_P1;HPM_P2
2021/08/19 00:00:17;;;;;;;10.43;9.07;;;16.40;99.90;;;;;;5093710;28;20044;-69
2021/08/19 00:02:43;;;;;;;11.60;9.57;;;16.40;99.90;;;;;;5094532;28;20403;-69
2021/08/19 00:05:09;;;;;;;11.63;8.50;;;16.40;99.90;;;;;;5094603;28;20040;-69
2021/08/19 00:07:35;;;;;;;11.60;8.75;;;16.30;99.90;;;;;;5094598;28;20071;-69
2021/08/19 00:10:00;;;;;;;13.52;9.15;;;16.30;99.90;;;;;;5094311;28;20082;-69
2021/08/19 00:12:26;;;;;;;12.63;9.00;;;16.30;99.90;;;;;;5094288;28;20039;-69
2021/08/19 00:14:52;;;;;;;13.75;9.00;;;16.30;99.90;;;;;;5094123;28;20036;-69
2021/08/19 00:17:18;;;;;;;9.45;8.35;;;16.30;99.90;;;;;;5094252;28;20043;-69
2021/08/19 00:19:43;;;;;;;11.40;8.57;;;16.30;99.90;;;;;;5094004;28;20392;-69
2021/08/19 00:22:09;;;;;;;12.75;8.73;;;16.20;99.90;;;;;;5094514;28;20039;-69
2021/08/19 00:24:34;;;;;;;10.88;8.25;;;16.20;99.90;;;;;;5094750;28;20036;-69
2021/08/19 00:27:00;;;;;;;10.75;8.48;;;16.20;99.90;;;;;;5094459;28;20063;-69
2021/08/19 00:29:26;;;;;;;11.70;9.23;;;16.20;99.90;;;;;;5093416;28;20381;-69
2021/08/19 00:31:52;;;;;;;12.70;8.90;;;16.20;99.90;;;;;;5094080;28;20077;-69
2021/08/19 00:34:17;;;;;;;11.48;8.75;;;16.20;99.90;;;;;;5094148;28;20070;-69
2021/08/19 00:36:44;;;;;;;12.52;8.70;;;16.20;99.90;;;;;;5093980;28;20040;-69
2021/08/19 00:39:10;;;;;;;13.75;8.68;;;16.20;99.90;;;;;;5093747;28;20446;-69
2021/08/19 00:41:36;;;;;;;12.07;8.73;;;16.20;99.90;;;;;;5093673;28;20036;-69
2021/08/19 00:44:03;;;;;;;15.10;8.90;;;16.20;99.90;;;;;;5093626;28;20036;-69
2021/08/19 00:46:32;;;;;;;12.40;8.90;;;16.20;99.90;;;;;;5094145;28;20068;-69
2021/08/19 00:49:14;;;;;;;12.95;9.25;;;16.30;99.90;;;;;;5093660;28;20055;-69
2021/08/19 00:51:43;;;;;;;11.18;8.90;;;16.30;99.90;;;;;;5093649;28;20101;-69
2021/08/19 00:54:15;;;;;;;12.00;8.95;;;16.20;99.90;;;;;;5093751;28;20066;-69
2021/08/19 00:56:41;;;;;;;12.65;9.35;;;16.20;99.90;;;;;;5093740;28;20044;-69
2021/08/19 00:59:09;;;;;;;12.25;7.82;;;16.20;99.90;;;;;;5093367;28;20048;-69
2021/08/19 01:01:36;;;;;;;13.35;8.57;;;16.20;99.90;;;;;;5093751;28;20051;-69
2021/08/19 01:04:03;;;;;;;10.60;8.15;;;16.20;99.90;;;;;;5093534;28;20408;-69
2021/08/19 01:06:29;;;;;;;13.05;7.85;;;16.20;99.90;;;;;;5093519;28;20086;-69
2021/08/19 01:08:55;;;;;;;15.10;8.20;;;16.20;99.90;;;;;;5093102;28;20052;-69
2021/08/19 01:11:21;;;;;;;13.52;7.88;;;16.30;99.90;;;;;;5093466;28;20031;-70
2021/08/19 01:13:51;;;;;;;9.52;7.72;;;16.20;99.90;;;;;;5093398;28;20472;-69
2021/08/19 01:16:18;;;;;;;13.68;8.57;;;16.30;99.90;;;;;;5094435;28;20044;-69
2021/08/19 01:18:45;;;;;;;15.50;7.82;;;16.30;99.90;;;;;;5093384;28;20488;-70
2021/08/19 01:21:12;;;;;;;13.73;8.90;;;16.20;99.90;;;;;;5093357;28;20043;-69
2021/08/19 01:23:38;;;;;;;12.43;8.38;;;16.20;99.90;;;;;;5093974;28;20071;-69
2021/08/19 01:26:13;;;;;;;14.68;8.73;;;16.20;99.90;;;;;;5093633;28;20036;-69
2021/08/19 01:28:39;;;;;;;12.10;8.45;;;16.20;99.90;;;;;;5093018;28;20399;-69
2021/08/19 01:31:06;;;;;;;11.38;7.95;;;16.20;99.90;;;;;;5093373;28;20036;-69
2021/08/19 01:33:32;;;;;;;11.63;8.60;;;16.20;99.90;;;;;;5093132;28;20122;-69
2021/08/19 01:35:58;;;;;;;13.25;8.40;;;16.20;99.90;;;;;;5093129;28;20468;-69
2021/08/19 01:38:31;;;;;;;11.35;7.88;;;16.20;99.90;;;;;;5093519;28;20047;-69
2021/08/19 01:40:58;;;;;;;10.65;8.10;;;16.20;99.90;;;;;;5094121;28;20047;-69
2021/08/19 01:43:25;;;;;;;14.18;7.75;;;16.20;99.90;;;;;;5097519;28;20075;-69
2021/08/19 01:45:54;;;;;;;14.95;7.88;;;16.20;99.90;;;;;;5097382;28;20051;-69
2021/08/19 01:48:19;;;;;;;15.13;7.60;;;16.20;99.90;;;;;;5097280;28;20459;-69
2021/08/19 01:50:45;;;;;;;14.00;8.05;;;16.20;99.90;;;;;;5096834;28;20068;-69
2021/08/19 01:53:11;;;;;;;12.88;8.23;;;16.20;99.90;;;;;;5096901;28;20043;-69
2021/08/19 01:55:37;;;;;;;13.32;8.50;;;16.20;99.90;;;;;;5096968;28;20036;-69
2021/08/19 01:58:02;;;;;;;12.73;9.18;;;16.20;99.90;;;;;;5096866;28;20085;-69
2021/08/19 02:00:28;;;;;;;12.50;8.30;;;16.20;99.90;;;;;;5096515;28;20047;-69
2021/08/19 02:02:54;;;;;;;15.57;8.98;;;16.20;99.90;;;;;;5097738;28;20043;-69
2021/08/19 02:05:21;;;;;;;10.18;8.85;;;16.20;99.90;;;;;;5096975;28;20044;-69
2021/08/19 02:07:47;;;;;;;13.90;9.05;;;16.20;99.90;;;;;;5097123;28;20039;-69
2021/08/19 02:10:12;;;;;;;11.10;8.90;;;16.20;99.90;;;;;;5096539;28;20044;-69
2021/08/19 02:12:38;;;;;;;12.77;8.85;;;16.20;99.90;;;;;;5096981;28;20039;-69
2021/08/19 02:15:05;;;;;;;13.07;9.18;;;16.20;99.90;;;;;;5096432;28;20499;-69
2021/08/19 02:17:30;;;;;;;11.05;9.38;;;16.20;99.90;;;;;;5096501;28;20510;-69
2021/08/19 02:19:59;;;;;;;12.68;8.90;;;16.20;99.90;;;;;;5096379;28;20126;-69
2021/08/19 02:22:25;;;;;;;13.73;8.70;;;16.20;99.90;;;;;;5096436;28;20036;-69
2021/08/19 02:24:51;;;;;;;13.02;8.65;;;16.20;99.90;;;;;;5096622;28;20043;-69
2021/08/19 02:27:17;;;;;;;11.35;9.10;;;16.20;99.90;;;;;;5096582;28;20044;-69
2021/08/19 02:29:42;;;;;;;12.32;8.85;;;16.20;99.90;;;;;;5096065;28;20043;-69
2021/08/19 02:32:08;;;;;;;15.77;9.20;;;16.20;99.90;;;;;;5096549;28;20032;-69
2021/08/19 02:34:34;;;;;;;14.93;9.40;;;16.20;99.90;;;;;;5096294;28;20032;-69
2021/08/19 02:36:59;;;;;;;13.45;9.40;;;16.20;99.90;;;;;;5096374;28;20074;-69
2021/08/19 02:39:25;;;;;;;14.40;9.88;;;16.20;99.90;;;;;;5096027;28;20476;-69
2021/08/19 02:41:51;;;;;;;14.00;9.05;;;16.20;99.90;;;;;;5095233;28;20490;-69
2021/08/19 02:44:17;;;;;;;14.10;10.27;;;16.20;99.90;;;;;;5096114;28;20039;-69
2021/08/19 02:46:42;;;;;;;13.27;9.38;;;16.20;99.90;;;;;;5095979;28;20110;-69
2021/08/19 02:49:08;;;;;;;15.18;10.13;;;16.20;99.90;;;;;;5094421;28;20123;-70
2021/08/19 02:51:34;;;;;;;13.27;9.65;;;16.20;99.90;;;;;;5095269;28;20040;-69
2021/08/19 02:53:59;;;;;;;12.75;8.95;;;16.20;99.90;;;;;;5095900;28;20036;-69
2021/08/19 02:56:26;;;;;;;13.18;9.57;;;16.30;99.90;;;;;;5096047;28;20458;-69
2021/08/19 02:58:52;;;;;;;16.80;10.40;;;16.20;99.90;;;;;;5095516;28;20040;-69
2021/08/19 03:01:18;;;;;;;13.73;11.13;;;16.20;99.90;;;;;;5095807;28;20115;-69
2021/08/19 03:03:44;;;;;;;12.52;10.00;;;16.30;99.90;;;;;;5095622;28;20036;-70
2021/08/19 03:06:10;;;;;;;12.98;10.75;;;16.20;99.90;;;;;;5094521;28;20043;-70
2021/08/19 03:08:37;;;;;;;14.98;11.55;;;16.20;99.90;;;;;;5095254;28;20171;-70
2021/08/19 03:11:03;;;;;;;16.40;11.93;;;16.20;99.90;;;;;;5095840;28;20559;-69
2021/08/19 03:13:29;;;;;;;14.32;11.65;;;16.20;99.90;;;;;;5095324;28;20106;-70
2021/08/19 03:15:54;;;;;;;14.70;11.05;;;16.20;99.90;;;;;;5095753;28;20369;-70
2021/08/19 03:18:23;;;;;;;16.55;11.70;;;16.20;99.90;;;;;;5095303;28;20047;-69
2021/08/19 03:20:49;;;;;;;16.50;11.85;;;16.20;99.90;;;;;;5095333;28;20476;-69
2021/08/19 03:23:14;;;;;;;17.13;12.05;;;16.20;99.90;;;;;;5095493;28;20495;-69
2021/08/19 03:25:40;;;;;;;15.35;11.95;;;16.20;99.90;;;;;;5095468;28;20036;-69
2021/08/19 03:28:08;;;;;;;15.88;13.57;;;16.20;99.90;;;;;;5095356;28;20044;-69
2021/08/19 03:30:36;;;;;;;18.83;13.27;;;16.20;99.90;;;;;;5094779;28;20040;-69
2021/08/19 03:33:07;;;;;;;17.17;12.77;;;16.20;99.90;;;;;;5094985;28;20040;-69
2021/08/19 03:35:32;;;;;;;17.88;13.85;;;16.20;99.90;;;;;;5095170;28;20040;-69
2021/08/19 03:37:58;;;;;;;17.48;14.02;;;16.20;99.90;;;;;;5094969;28;20032;-70
2021/08/19 03:40:26;;;;;;;19.58;13.48;;;16.20;99.90;;;;;;5094642;28;20083;-69
2021/08/19 03:42:53;;;;;;;16.80;12.75;;;16.20;99.90;;;;;;5094885;28;20044;-69
2021/08/19 03:45:19;;;;;;;19.20;14.32;;;16.20;99.90;;;;;;5095198;28;20085;-69
2021/08/19 03:47:48;;;;;;;21.23;15.00;;;16.20;99.90;;;;;;5094974;28;20113;-69
2021/08/19 03:50:14;;;;;;;17.95;15.00;;;16.20;99.90;;;;;;5094753;28;20043;-69
2021/08/19 03:52:40;;;;;;;15.30;13.02;;;16.20;99.90;;;;;;5094622;28;20043;-69
2021/08/19 03:55:06;;;;;;;18.38;12.63;;;16.20;99.90;;;;;;5095159;28;20087;-69
2021/08/19 03:57:32;;;;;;;15.65;13.15;;;16.20;99.90;;;;;;5094021;28;20044;-69
2021/08/19 03:59:57;;;;;;;17.75;13.20;;;16.20;99.90;;;;;;5094098;28;20101;-69
2021/08/19 04:02:23;;;;;;;15.82;13.88;;;16.20;99.90;;;;;;5094646;28;20036;-69
2021/08/19 04:04:49;;;;;;;19.42;12.25;;;16.20;99.90;;;;;;5093641;28;20044;-69
2021/08/19 04:07:15;;;;;;;19.48;13.45;;;16.20;99.90;;;;;;5094399;28;20036;-69
2021/08/19 04:09:40;;;;;;;19.85;13.88;;;16.20;99.90;;;;;;5094043;28;20047;-69
2021/08/19 04:12:07;;;;;;;19.40;13.57;;;16.20;99.90;;;;;;5094307;28;20048;-69
2021/08/19 04:14:33;;;;;;;20.17;14.88;;;16.20;99.90;;;;;;5094294;28;20040;-69
2021/08/19 04:16:58;;;;;;;22.77;16.15;;;16.20;99.90;;;;;;5094265;28;20040;-69
2021/08/19 04:19:24;;;;;;;22.92;16.30;;;16.20;99.90;;;;;;5093946;28;20047;-70
2021/08/19 04:21:51;;;;;;;20.85;14.98;;;16.20;99.90;;;;;;5094201;28;20391;-69
2021/08/19 04:24:18;;;;;;;23.75;15.65;;;16.20;99.90;;;;;;5094309;28;20047;-69
2021/08/19 04:26:44;;;;;;;22.85;16.02;;;16.20;99.90;;;;;;5094018;28;20031;-69
2021/08/19 04:29:10;;;;;;;19.67;15.13;;;16.30;99.90;;;;;;5093645;28;20398;-69
2021/08/19 04:31:36;;;;;;;17.85;14.77;;;16.30;99.90;;;;;;5094064;28;20065;-70
2021/08/19 04:34:03;;;;;;;19.23;15.57;;;16.20;99.90;;;;;;5094294;28;20036;-69
2021/08/19 04:36:29;;;;;;;21.55;15.32;;;16.30;99.90;;;;;;5094314;28;20131;-69
2021/08/19 04:38:55;;;;;;;17.58;15.02;;;16.30;99.90;;;;;;5093880;28;20550;-70
2021/08/19 04:41:21;;;;;;;24.63;15.45;;;16.30;99.90;;;;;;5094406;28;20070;-69
2021/08/19 04:43:47;;;;;;;23.42;15.82;;;16.30;99.90;;;;;;5094267;28;20118;-69
2021/08/19 04:46:13;;;;;;;20.75;15.65;;;16.30;99.90;;;;;;5093756;28;20064;-69
2021/08/19 04:48:39;;;;;;;21.00;16.75;;;16.30;99.90;;;;;;5093743;28;20051;-70
2021/08/19 04:51:05;;;;;;;24.02;16.48;;;16.30;99.90;;;;;;5093750;28;20472;-69
2021/08/19 04:53:31;;;;;;;22.98;15.35;;;16.30;99.90;;;;;;5092676;28;20044;-69
2021/08/19 04:55:56;;;;;;;22.25;16.02;;;16.40;99.90;;;;;;5093553;28;20422;-69
2021/08/19 04:58:24;;;;;;;21.35;15.38;;;16.30;99.90;;;;;;5093724;28;20434;-69
2021/08/19 05:00:50;;;;;;;21.95;16.17;;;16.40;99.90;;;;;;5093470;28;20040;-69
2021/08/19 05:03:16;;;;;;;17.88;15.23;;;16.40;99.90;;;;;;5093657;28;20039;-70
2021/08/19 05:05:42;;;;;;;19.60;15.52;;;16.40;99.90;;;;;;5093693;28;20115;-70
2021/08/19 05:08:08;;;;;;;28.25;17.30;;;16.40;99.90;;;;;;5092392;28;20052;-69
2021/08/19 05:10:34;;;;;;;19.85;15.85;;;16.40;99.90;;;;;;5093088;28;20117;-70
2021/08/19 05:13:00;;;;;;;22.20;16.63;;;16.40;99.90;;;;;;5093339;28;20036;-70
2021/08/19 05:15:26;;;;;;;20.17;15.88;;;16.40;99.90;;;;;;5093425;28;20032;-70
2021/08/19 05:17:51;;;;;;;22.20;15.60;;;16.40;99.90;;;;;;5093208;28;20105;-70
2021/08/19 05:20:17;;;;;;;21.90;16.33;;;16.40;99.90;;;;;;5092965;28;20036;-70
2021/08/19 05:22:43;;;;;;;24.50;17.60;;;16.40;99.90;;;;;;5093884;28;20036;-70
2021/08/19 05:25:12;;;;;;;26.17;16.98;;;16.40;99.90;;;;;;5093132;28;20036;-70
2021/08/19 05:27:38;;;;;;;21.63;16.15;;;16.40;99.90;;;;;;5093319;28;20036;-70
2021/08/19 05:30:04;;;;;;;22.08;15.65;;;16.40;99.90;;;;;;5093170;28;20048;-69
2021/08/19 05:32:30;;;;;;;20.23;15.95;;;16.40;99.90;;;;;;5093614;28;20040;-70
2021/08/19 05:34:56;;;;;;;21.13;16.35;;;16.40;99.90;;;;;;5093620;28;20043;-69
2021/08/19 05:37:22;;;;;;;20.73;16.05;;;16.50;99.90;;;;;;5091996;28;20040;-69
2021/08/19 05:39:48;;;;;;;24.83;17.33;;;16.50;99.90;;;;;;5092794;28;20059;-70
2021/08/19 05:42:14;;;;;;;21.73;16.33;;;16.50;99.90;;;;;;5093085;28;20055;-70
2021/08/19 05:44:40;;;;;;;23.00;17.10;;;16.50;99.90;;;;;;5093058;28;20040;-70
2021/08/19 05:47:06;;;;;;;24.52;17.30;;;16.50;99.90;;;;;;5093407;28;20046;-69
2021/08/19 05:49:35;;;;;;;24.85;17.35;;;16.50;99.90;;;;;;5092715;28;20047;-70
2021/08/19 05:52:00;;;;;;;24.27;17.15;;;16.60;99.90;;;;;;5093140;28;20377;-70
2021/08/19 05:54:26;;;;;;;24.38;17.42;;;16.50;99.90;;;;;;5092922;28;20093;-69
2021/08/19 05:56:52;;;;;;;24.38;17.20;;;16.60;99.90;;;;;;5093055;28;20036;-70
2021/08/19 05:59:17;;;;;;;24.85;16.75;;;16.60;99.90;;;;;;5093036;28;20089;-70
2021/08/19 06:01:43;;;;;;;28.17;19.50;;;16.60;99.90;;;;;;5093003;28;20473;-70
2021/08/19 06:04:09;;;;;;;27.70;19.02;;;16.60;99.90;;;;;;5092929;28;20040;-70
2021/08/19 06:06:34;;;;;;;25.38;17.10;;;16.60;99.90;;;;;;5093396;28;20085;-70
2021/08/19 06:09:00;;;;;;;31.40;18.63;;;16.60;99.90;;;;;;5092678;28;20040;-69
2021/08/19 06:11:26;;;;;;;26.58;20.23;;;16.60;99.90;;;;;;5093157;28;20079;-72
2021/08/19 06:13:51;;;;;;;25.48;19.17;;;16.70;99.90;;;;;;5091593;28;20439;-72
2021/08/19 06:16:17;;;;;;;32.97;20.02;;;16.70;99.90;;;;;;5092736;28;20043;-72
2021/08/19 06:18:43;;;;;;;36.03;20.02;;;16.70;99.90;;;;;;5092468;28;20048;-72
2021/08/19 06:21:09;;;;;;;31.88;19.05;;;16.70;99.90;;;;;;5092681;28;20032;-72
2021/08/19 06:23:37;;;;;;;28.02;19.45;;;16.80;99.90;;;;;;5092922;28;20145;-72
2021/08/19 06:26:03;;;;;;;27.02;18.23;;;16.80;99.90;;;;;;5092776;28;20468;-72
2021/08/19 06:28:29;;;;;;;32.88;19.75;;;16.80;99.90;;;;;;5095445;28;20124;-73
2021/08/19 06:30:55;;;;;;;24.40;19.70;;;16.80;99.90;;;;;;5096291;28;20114;-72
2021/08/19 06:33:20;;;;;;;30.88;19.58;;;16.80;99.90;;;;;;5096244;28;20040;-72
2021/08/19 06:35:46;;;;;;;25.92;18.60;;;16.90;99.90;;;;;;5096185;28;20032;-72
2021/08/19 06:38:14;;;;;;;31.83;20.00;;;16.90;99.90;;;;;;5096103;28;20071;-72
2021/08/19 06:40:40;;;;;;;30.15;19.52;;;16.90;99.90;;;;;;5095677;28;20047;-72
2021/08/19 06:43:06;;;;;;;29.45;18.95;;;16.90;99.90;;;;;;5096200;28;20036;-72
2021/08/19 06:45:33;;;;;;;31.58;21.65;;;16.90;99.90;;;;;;5096018;28;20040;-72
2021/08/19 06:47:59;;;;;;;28.40;19.50;;;16.80;99.90;;;;;;5096395;28;20113;-73
2021/08/19 06:50:24;;;;;;;31.95;21.67;;;16.80;99.90;;;;;;5096329;28;20452;-73
2021/08/19 06:52:50;;;;;;;30.92;20.90;;;16.80;99.90;;;;;;5096189;28;20035;-73
2021/08/19 06:55:16;;;;;;;35.50;21.63;;;16.90;99.90;;;;;;5096058;28;20036;-73
2021/08/19 06:57:42;;;;;;;34.95;20.02;;;16.90;99.90;;;;;;5095934;28;20039;-73
2021/08/19 07:00:09;;;;;;;32.22;20.65;;;16.90;99.90;;;;;;5095320;28;20082;-73
2021/08/19 07:02:37;;;;;;;39.08;21.38;;;16.90;99.90;;;;;;5095960;28;20040;-73
2021/08/19 07:05:03;;;;;;;32.88;20.42;;;17.00;99.90;;;;;;5095740;28;20044;-73
2021/08/19 07:07:28;;;;;;;32.60;20.33;;;17.00;99.90;;;;;;5095781;28;20549;-73
2021/08/19 07:10:00;;;;;;;35.88;21.40;;;17.00;99.90;;;;;;5095514;28;20089;-73
2021/08/19 07:12:26;;;;;;;32.55;20.95;;;17.10;99.90;;;;;;5095925;28;20114;-73
2021/08/19 07:14:51;;;;;;;33.30;20.48;;;17.10;99.90;;;;;;5095533;28;20399;-73
2021/08/19 07:17:17;;;;;;;31.50;20.88;;;17.20;99.90;;;;;;5095596;28;20093;-73
2021/08/19 07:19:43;;;;;;;33.35;21.42;;;17.20;99.90;;;;;;5094853;28;20046;-73
2021/08/19 07:22:09;;;;;;;33.35;19.98;;;17.20;99.90;;;;;;5095258;28;20040;-73
2021/08/19 07:24:34;;;;;;;28.17;20.13;;;17.20;99.90;;;;;;5095367;28;20047;-73
2021/08/19 07:27:04;;;;;;;30.95;20.23;;;17.20;99.90;;;;;;5095818;28;20032;-73
2021/08/19 07:29:30;;;;;;;32.78;18.40;;;17.20;99.90;;;;;;5094911;28;20040;-73
2021/08/19 07:31:55;;;;;;;26.85;16.75;;;17.30;99.90;;;;;;5094972;28;20116;-74
2021/08/19 07:34:26;;;;;;;24.42;15.77;;;17.30;99.90;;;;;;5094117;28;20044;-73
2021/08/19 07:36:51;;;;;;;21.00;15.50;;;17.30;99.90;;;;;;5095227;28;20047;-73
2021/08/19 07:39:17;;;;;;;25.27;15.18;;;17.30;99.90;;;;;;5094616;28;20043;-73
2021/08/19 07:41:43;;;;;;;23.77;16.42;;;17.30;99.90;;;;;;5094910;28;20039;-73
2021/08/19 07:44:08;;;;;;;25.17;14.77;;;17.30;99.90;;;;;;5094868;28;20137;-73
2021/08/19 07:46:35;;;;;;;24.00;15.02;;;17.30;99.90;;;;;;5094869;28;20041;-73
2021/08/19 07:49:02;;;;;;;22.17;15.25;;;17.30;99.90;;;;;;5095149;28;20047;-73
2021/08/19 07:51:31;;;;;;;24.40;14.20;;;17.30;99.90;;;;;;5094849;28;20532;-73
2021/08/19 07:53:57;;;;;;;17.85;12.95;;;17.30;99.90;;;;;;5095114;28;20045;-73
2021/08/19 07:56:23;;;;;;;16.85;12.88;;;17.40;99.90;;;;;;5094976;28;20058;-73
2021/08/19 07:58:49;;;;;;;16.50;11.98;;;17.40;99.90;;;;;;5094603;28;20043;-73
2021/08/19 08:01:14;;;;;;;19.77;13.13;;;17.30;99.90;;;;;;5094537;28;20036;-73
2021/08/19 08:03:40;;;;;;;20.80;12.07;;;17.30;99.90;;;;;;5094988;28;20081;-73
2021/08/19 08:06:06;;;;;;;17.52;11.45;;;17.40;99.90;;;;;;5094613;28;20036;-73
2021/08/19 08:08:31;;;;;;;18.17;11.55;;;17.40;99.90;;;;;;5094100;28;20047;-73
2021/08/19 08:10:57;;;;;;;17.15;12.05;;;17.30;99.90;;;;;;5094245;28;20060;-73
2021/08/19 08:13:23;;;;;;;20.92;11.07;;;17.40;99.90;;;;;;5094170;28;20048;-73
2021/08/19 08:15:48;;;;;;;17.60;11.95;;;17.40;99.90;;;;;;5094331;28;20040;-73
2021/08/19 08:18:20;;;;;;;21.15;10.85;;;17.30;99.90;;;;;;5093364;28;20090;-73
2021/08/19 08:20:46;;;;;;;17.40;12.35;;;17.40;99.90;;;;;;5093874;28;20040;-73
2021/08/19 08:23:12;;;;;;;16.88;11.85;;;17.30;99.90;;;;;;5094405;28;20467;-73
2021/08/19 08:25:38;;;;;;;17.45;11.85;;;17.40;99.90;;;;;;5094322;28;20074;-74
2021/08/19 08:28:09;;;;;;;15.93;10.25;;;17.40;99.90;;;;;;5094083;28;20040;-73
2021/08/19 08:30:36;;;;;;;16.98;10.82;;;17.40;99.90;;;;;;5093709;28;20036;-73
2021/08/19 08:33:02;;;;;;;12.05;9.70;;;17.40;99.90;;;;;;5094003;28;20081;-73
2021/08/19 08:35:33;;;;;;;23.35;10.52;;;17.40;99.90;;;;;;5094042;28;20055;-73
2021/08/19 08:38:02;;;;;;;13.50;9.55;;;17.40;99.90;;;;;;5094144;28;20036;-73
2021/08/19 08:40:28;;;;;;;13.85;8.63;;;17.40;99.90;;;;;;5093480;28;20035;-73
2021/08/19 08:42:55;;;;;;;14.95;9.88;;;17.40;99.90;;;;;;5094744;28;20426;-73
2021/08/19 08:45:21;;;;;;;14.77;9.18;;;17.40;99.90;;;;;;5093716;28;20047;-73
2021/08/19 08:47:48;;;;;;;14.52;10.20;;;17.40;99.90;;;;;;5093894;28;20040;-73
2021/08/19 08:50:15;;;;;;;13.60;8.93;;;17.40;99.90;;;;;;5092452;28;20044;-72
2021/08/19 08:52:41;;;;;;;14.27;8.80;;;17.50;99.90;;;;;;5093814;28;20036;-71
2021/08/19 08:55:07;;;;;;;11.95;8.82;;;17.60;99.90;;;;;;5093422;28;20038;-71
2021/08/19 08:57:35;;;;;;;11.82;8.95;;;17.70;99.90;;;;;;5093888;28;20047;-71
2021/08/19 09:00:03;;;;;;;11.98;8.18;;;17.80;99.90;;;;;;5092329;28;20442;-71
2021/08/19 09:02:29;;;;;;;10.00;8.18;;;17.90;99.90;;;;;;5093627;28;20048;-71
2021/08/19 09:05:14;;;;;;;12.88;8.80;;;17.90;99.90;;;;;;5092406;28;20105;-71
2021/08/19 09:07:40;;;;;;;12.73;9.38;;;18.00;99.90;;;;;;5093895;28;20043;-71
2021/08/19 09:10:06;;;;;;;12.48;8.05;;;18.00;99.90;;;;;;5092963;28;20476;-71
2021/08/19 09:12:42;;;;;;;11.80;9.40;;;18.00;99.90;;;;;;5094240;28;20093;-71
2021/08/19 09:15:13;;;;;;;12.50;8.30;;;18.00;99.90;;;;;;5093298;28;20081;-71
2021/08/19 09:17:41;;;;;;;10.75;7.82;;;18.00;99.90;;;;;;5093004;28;20123;-72
2021/08/19 09:20:07;;;;;;;10.38;7.70;;;18.00;99.90;;;;;;5093382;28;20074;-70
2021/08/19 09:23:08;;;;;;;12.35;8.07;;;18.00;99.90;;;;;;5093811;28;20044;-71
2021/08/19 09:25:39;;;;;;;9.40;6.60;;;18.00;99.90;;;;;;5092589;28;20036;-70
2021/08/19 09:28:15;;;;;;;8.60;6.53;;;17.90;99.90;;;;;;5093485;28;20036;-71
2021/08/19 09:30:55;;;;;;;8.07;6.45;;;17.80;99.90;;;;;;5092910;28;20396;-71
2021/08/19 09:33:23;;;;;;;7.07;5.85;;;17.90;99.90;;;;;;5093250;28;20491;-70
2021/08/19 09:35:51;;;;;;;8.38;5.88;;;17.90;99.90;;;;;;5093313;28;20350;-70
2021/08/19 09:38:21;;;;;;;6.88;5.32;;;17.80;99.90;;;;;;5092043;28;20563;-71
2021/08/19 09:41:05;;;;;;;6.10;4.60;;;17.90;99.90;;;;;;5092386;28;20065;-69
2021/08/19 09:43:38;;;;;;;5.63;4.05;;;17.80;99.90;;;;;;5093216;28;20035;-71
2021/08/19 09:46:04;;;;;;;;;;;17.70;99.90;;;;;;5093913;28;20032;-71
2021/08/19 09:48:30;;;;;;;4.75;3.92;;;17.70;99.90;;;;;;5092893;28;20348;-71
2021/08/19 09:51:14;;;;;;;4.28;3.78;;;17.30;99.90;;;;;;5093283;28;20036;-71
2021/08/19 09:53:47;;;;;;;;;;;17.20;99.90;;;;;;5093730;28;20040;-71
2021/08/19 09:56:24;;;;;;;7.88;5.20;;;17.10;99.90;;;;;;5093018;28;20001;-71
2021/08/19 09:58:50;;;;;;;5.50;4.28;;;17.10;99.90;;;;;;5092381;28;20377;-71
2021/08/19 10:01:15;;;;;;;6.63;5.32;;;17.10;99.90;;;;;;5092841;28;20042;-71
2021/08/19 10:03:41;;;;;;;8.65;5.03;;;17.20;99.90;;;;;;5096594;28;20032;-71
2021/08/19 10:06:09;;;;;;;8.05;5.05;;;17.30;99.90;;;;;;5096850;28;20039;-71
2021/08/19 10:08:34;;;;;;;9.13;5.75;;;17.30;99.90;;;;;;5096316;28;20039;-71
2021/08/19 10:11:01;;;;;;;5.78;4.88;;;17.30;99.90;;;;;;5096627;28;20123;-71
2021/08/19 10:13:29;;;;;;;10.20;5.25;;;17.30;99.90;;;;;;5096223;28;20565;-71
2021/08/19 10:15:55;;;;;;;7.22;5.10;;;17.40;99.90;;;;;;5096422;28;20051;-71
2021/08/19 10:18:25;;;;;;;8.60;5.57;;;17.40;99.90;;;;;;5096779;28;20119;-71
2021/08/19 10:21:01;;;;;;;7.05;6.20;;;17.40;99.90;;;;;;5095976;28;20036;-71
2021/08/19 10:23:29;;;;;;;8.13;7.05;;;17.60;99.90;;;;;;5096191;28;20115;-71
2021/08/19 10:26:07;;;;;;;10.80;7.47;;;17.60;99.90;;;;;;5096285;28;20503;-71
2021/08/19 10:28:51;;;;;;;9.85;7.03;;;17.70;99.90;;;;;;5095774;28;20036;-71
2021/08/19 10:31:36;;;;;;;10.13;7.38;;;17.80;99.90;;;;;;5096058;28;20392;-71
2021/08/19 10:34:02;;;;;;;8.98;7.03;;;17.80;99.90;;;;;;5096481;28;20054;-71
2021/08/19 10:36:31;;;;;;;9.98;7.70;;;17.80;99.90;;;;;;5096231;28;20097;-71
2021/08/19 10:39:18;;;;;;;12.68;7.85;;;17.80;99.90;;;;;;5095949;28;20044;-71
2021/08/19 10:41:45;;;;;;;10.10;7.53;;;17.80;99.90;;;;;;5095928;28;20132;-72
2021/08/19 10:44:12;;;;;;;9.30;7.53;;;17.70;99.90;;;;;;5095804;28;20054;-71
2021/08/19 10:46:41;;;;;;;9.02;7.85;;;17.70;99.90;;;;;;5096171;28;20111;-71
2021/08/19 10:49:27;;;;;;;9.15;7.43;;;17.70;99.90;;;;;;5094224;28;20048;-71
2021/08/19 10:51:53;;;;;;;10.30;7.85;;;17.70;99.90;;;;;;5096217;28;20051;-71
2021/08/19 10:54:33;;;;;;;9.48;8.07;;;17.70;99.90;;;;;;5095868;28;20036;-71
2021/08/19 10:57:18;;;;;;;10.98;8.77;;;17.80;99.90;;;;;;5095042;28;20124;-71
2021/08/19 10:59:56;;;;;;;11.52;8.65;;;17.90;99.90;;;;;;5095737;28;20048;-71
2021/08/19 11:02:36;;;;;;;11.40;7.97;;;18.00;99.90;;;;;;5095623;28;20105;-71
2021/08/19 11:05:02;;;;;;;11.52;9.50;;;18.10;99.90;;;;;;5095495;28;20476;-71
2021/08/19 11:07:50;;;;;;;12.63;9.27;;;18.20;99.90;;;;;;5095868;28;20032;-71
2021/08/19 11:10:29;;;;;;;13.80;9.77;;;18.30;99.90;;;;;;5095189;28;20098;-71
2021/08/19 11:13:09;;;;;;;11.57;8.75;;;18.30;99.90;;;;;;5095426;28;20036;-71
2021/08/19 11:15:45;;;;;;;10.88;9.18;;;18.30;99.90;;;;;;5095320;28;20106;-71
2021/08/19 11:18:25;;;;;;;12.90;8.45;;;18.20;99.90;;;;;;5095565;28;20098;-71
2021/08/19 11:20:51;;;;;;;13.55;10.07;;;18.10;99.90;;;;;;5095023;28;20048;-70
2021/08/19 11:23:17;;;;;;;11.02;9.07;;;18.00;99.90;;;;;;5095573;28;20439;-71
2021/08/19 11:25:45;;;;;;;9.13;7.20;;;17.80;99.90;;;;;;5095517;28;20479;-71
2021/08/19 11:28:18;;;;;;;10.88;7.07;;;17.80;99.90;;;;;;5095096;28;20476;-72
2021/08/19 11:30:47;;;;;;;10.73;7.28;;;17.60;99.90;;;;;;5094799;28;20070;-71
2021/08/19 11:33:23;;;;;;;9.70;7.57;;;17.60;99.90;;;;;;5095009;28;20040;-71
2021/08/19 11:35:52;;;;;;;8.65;6.95;;;17.60;99.90;;;;;;5093900;28;20385;-71
2021/08/19 11:38:22;;;;;;;9.85;7.05;;;17.70;99.90;;;;;;5095447;28;20442;-71
2021/08/19 11:40:51;;;;;;;10.43;7.72;;;17.80;99.90;;;;;;5094631;28;20044;-71
2021/08/19 11:43:28;;;;;;;10.90;8.05;;;17.90;99.90;;;;;;5094774;28;20036;-71
2021/08/19 11:46:04;;;;;;;11.55;7.95;;;18.10;99.90;;;;;;5094595;28;20111;-71
2021/08/19 11:48:30;;;;;;;10.07;7.65;;;18.30;99.90;;;;;;5094995;28;20042;-70
2021/08/19 11:51:00;;;;;;;13.32;8.25;;;18.40;99.90;;;;;;5094473;28;20118;-71
2021/08/19 11:53:26;;;;;;;15.40;8.45;;;18.50;99.90;;;;;;5093445;28;20032;-70
2021/08/19 11:55:53;;;;;;;13.43;8.32;;;18.50;99.90;;;;;;5094471;28;20032;-70
2021/08/19 11:58:24;;;;;;;16.70;8.45;;;18.50;99.90;;;;;;5094557;28;20086;-72
2021/08/19 12:01:07;;;;;;;14.32;8.38;;;18.40;99.90;;;;;;5094017;28;20048;-72
2021/08/19 12:03:35;;;;;;;12.90;9.98;;;18.20;99.90;;;;;;5094553;28;20478;-72
2021/08/19 12:06:08;;;;;;;16.45;9.48;;;18.00;99.90;;;;;;5094298;28;20119;-72
2021/08/19 12:08:36;;;;;;;14.52;8.95;;;17.90;99.90;;;;;;5093894;28;20039;-72
2021/08/19 12:11:04;;;;;;;14.68;8.93;;;17.80;99.90;;;;;;5094156;28;20040;-72
2021/08/19 12:13:33;;;;;;;15.30;9.95;;;17.70;99.90;;;;;;5094372;28;20544;-72
2021/08/19 12:15:59;;;;;;;16.60;9.07;;;17.70;99.90;;;;;;5094314;28;20365;-72
2021/08/19 12:18:26;;;;;;;15.60;9.73;;;17.70;99.90;;;;;;5094062;28;20079;-72
2021/08/19 12:21:11;;;;;;;15.15;9.73;;;17.70;99.90;;;;;;5093636;28;20040;-72
2021/08/19 12:23:38;;;;;;;15.18;8.73;;;17.70;99.90;;;;;;5094302;28;20501;-72
2021/08/19 12:26:12;;;;;;;15.50;9.02;;;17.70;99.90;;;;;;5093144;28;20482;-72
2021/08/19 12:28:38;;;;;;;12.60;7.70;;;17.70;99.90;;;;;;5093594;28;20112;-72
2021/08/19 12:31:08;;;;;;;12.48;8.93;;;17.70;99.90;;;;;;5092616;28;20480;-72
2021/08/19 12:33:39;;;;;;;10.93;8.05;;;17.70;99.90;;;;;;5092742;28;20039;-71
2021/08/19 12:36:19;;;;;;;11.38;8.43;;;17.70;99.90;;;;;;5093860;28;20051;-71